The Official Home Page Of The Professional Rodeo Cowboys Association PRCA RAM WORLD STANDINGS
ProRodeoTv.Com
Red

PRCA Stock Statistics

SEARCH BY:
Stock Rodeo Contestant Stock Contractor

Sandro Ferretti

EVENT:
Unofficial results reflect placement at time of Web posting and can change.

SEASON BREAKDOWN

Season Attempts Qual Rides Re-rides Ride %
2018 27 22 0 81.48 %
2017 55 38 0 69.09 %
Totals 82 60 0 0.00 %

RODEO DETAIL

Date Location Rodeo SC Brand Ride Comments Stock Score Contestant Score
8/10/2018 Mound City, KS Linn County Fair & Rodeo NF 122 73.50 17.00 / 19.50 19.00 / 18.00
8/9/2018 Crossett, AR Crossett Riding Club 70th Annual PRCA Rodeo PC 900 77.00 19.00 / 20.00 19.00 / 19.00
8/4/2018 Winnsboro, LA Deep South PRCA Rodeo PC 321 76.00 18.00 / 19.00 20.00 / 19.00
8/3/2018 Abilene, KS Wild Bill Hickok Rodeo AN 73 67.00 17.00 / 17.00 19.00 / 14.00
8/2/2018 Gerry, NY Gerry Volunteer Firemen s Rodeo FL Z96 71.50 17.00 / 17.00 19.00 / 18.50
7/30/2018 Hill City, KS Jayhawker Roundup Rodeo RH 54 66.00 19.00 / 18.00 15.00 / 14.00
7/27/2018 Manhattan, KS Kaw Valley Rodeo RH 45 68.00 18.00 / 19.00 15.00 / 16.00
7/26/2018 Burlington, CO Kit Carson County Fair & Rodeo RM X13 73.00 19.00 / 19.00 19.00 / 16.00
7/21/2018 Mesquite, TX Mesquite Championship Rodeo NS 123 68.00 19.00 / 18.00 15.00 / 16.00
7/20/2018 Pretty Prairie, KS Kansas Largest Night Rodeo BU -617 0.00 22.00 / 22.00 0.00 / 0.00
7/14/2018 Mesquite, TX Mesquite Championship Rodeo SH 9 76.00 19.00 / 19.00 20.00 / 18.00
6/28/2018 Springdale, AR Rodeo of The Ozarks SH 0813 79.50 20.00 / 19.00 21.50 / 19.00
6/23/2018 Mesquite, TX Mesquite Championship Rodeo SS H8 74.00 17.00 / 18.00 20.00 / 19.00
5/5/2018 Carthage, TX Panola County Cattlemen s Rodeo KL 012 79.00 18.00 / 21.00 19.00 / 21.00
4/28/2018 Jourdanton, TX Ropin Dreams Cowboy Fellowship PRCA Rodeo RM 016 75.00 19.00 / 21.00 18.00 / 17.00
4/26/2018 Lufkin, TX Angelina County Benefit Rodeo KR 225 0.00 18.00 / 18.00 0.00 / 0.00
3/3/2018 Immokalee, FL Big Cypress Shoot Out & Rodeo FS 225 72.00 18.00 / 18.00 18.00 / 18.00
2/3/2018 Lake Charles, LA SW District Fat Stock Show & Rodeo KR 223 0.00 22.00 / 22.00 0.00 / 0.00
1/26/2018 Tupelo, MS NE Mississippi Championship Rodeo HL -075 72.00 18.00 / 18.00 17.00 / 19.00
1/21/2018 Homestead, FL Homestead Championship Rodeo KL 10X 72.00 19.50 / 20.00 16.50 / 16.00
1/12/2018 Lafayette, LA Mid Winter Fair & Rodeo FR 356 71.50 18.50 / 18.00 19.00 / 16.00
11/11/2017 Davie, FL Southeastern Circuit Finals SH 981 0.00 0.00 / 0.00 0.00 / 0.00
11/10/2017 Davie, FL Southeastern Circuit Finals FS 117 61.00 19.00 / 18.00 10.00 / 14.00
11/9/2017 Davie, FL Southeastern Circuit Finals PC -8 0.00 19.50 / 19.50 0.00 / 0.00
10/8/2017 Waco, TX All American ProRodeo Finals CC -Q68 67.00 18.00 / 19.00 15.00 / 15.00
Page of 2
Per Page
Official Gear Of The PRCA

 
 
 
PRCA National Sponsors
MGM Grand Polaris Ranger
Copyright © 2018 Professional Rodeo Cowboys Association. All rights reserved. No portion of ProRodeo.com may be duplicated, redistributed or manipulated in any form. By accessing any information beyond this page, you agree to abide by the Terms of Use.
PRCA Wrangler National Finals Rodeo Wrangler ProRodeo Tour Finale Presented by Justin Boots Xtreme Bulls RAM National Circuit Finals Rodeo ProRodeo Gear ProRodeo Tour